Latest Weather Observations for Rutherglen

IDV60801

Issued at 5:32 pm EST Saturday 27 May 2017 (issued every 30 minutes, with the page automatically refreshed every 10 minutes)

About weather observations | Map of weather stations | Latest weather observations for VIC | Other Formats
Station Details ID: 082039 Name: RUTHERGLEN RESEARCH Lat: -36.10 Lon: 146.51 Height: 175.0 m
Data from the previous 72 hours. | See also: Recent months at Rutherglen
Date/Time
EST
Temp
°C
App
Temp
°C
Dew
Point
°C
Rel
Hum
%
Delta-T
°C
Wind Press
QNH
hPa
Press
MSL
hPa
Rain since
9am
mm
Dir  Spd
km/h
Gust
km/h
Spd
kts
Gust
kts
27/05:30pm 11.6 10.3 9.3 86 1.2 ENE 6 7 3 4 - - 0.0
27/05:00pm 14.3 13.1 9.7 74 2.4 NNE 6 9 3 5 - - 0.0
27/04:30pm 15.6 14.3 9.9 69 3.0 NNE 7 11 4 6 - - 0.0
27/04:00pm 15.5 14.4 10.5 72 2.7 NNE 7 11 4 6 - - 0.0
27/03:30pm 16.2 14.3 10.5 69 3.0 NNE 11 17 6 9 - - 0.0
27/03:00pm 16.6 14.6 10.2 66 3.4 NNE 11 15 6 8 - - 0.0
27/02:30pm 17.3 15.6 11.3 68 3.3 NE 11 19 6 10 - - 0.0
27/02:00pm 17.4 16.0 11.0 66 3.5 NE 9 15 5 8 - - 0.0
27/01:30pm 17.2 15.5 11.2 68 3.3 NE 11 17 6 9 - - 0.0
27/01:00pm 17.0 15.3 11.3 69 3.1 NNE 11 17 6 9 - - 0.0
27/12:30pm 16.3 14.6 12.3 77 2.2 NE 13 19 7 10 - - 0.0
27/12:00pm 15.9 14.5 12.1 78 2.1 NE 11 17 6 9 - - 0.0
27/11:30am 15.7 14.3 12.1 79 2.0 NE 11 17 6 9 - - 0.0
27/11:00am 14.8 13.4 12.3 85 1.4 NNE 11 17 6 9 - - 0.0
27/10:30am 14.9 13.5 12.2 84 1.5 NE 11 17 6 9 - - 0.0
27/10:00am 14.3 13.1 12.7 90 0.9 ENE 11 15 6 8 - - 0.0
27/09:30am 13.2 12.1 13.2 100 0.0 E 11 15 6 8 - - 0.0
27/09:00am 11.9 11.2 11.9 100 0.0 ENE 7 11 4 6 - - 0.2
27/08:30am 10.4 8.9 10.4 100 0.0 ENE 9 15 5 8 - - 0.2
27/08:00am 9.3 6.7 9.3 100 0.0 ENE 13 17 7 9 - - 0.2
27/07:30am 7.9 6.1 7.9 100 0.0 ENE 7 9 4 5 - - 0.2
27/07:00am 6.9 4.9 6.9 100 0.0 NE 7 9 4 5 - - 0.0
27/06:30am 6.5 4.9 6.5 100 0.0 NNE 4 6 2 3 - - 0.0
27/06:00am 6.0 5.1 6.0 100 0.0 CALM 0 0 0 0 - - 0.0
27/05:30am 6.8 4.9 6.8 100 0.0 ENE 6 6 3 3 - - 0.0
27/05:00am 5.6 3.8 5.6 100 0.0 ENE 4 6 2 3 - - 0.0
27/04:30am 6.0 5.1 6.0 100 0.0 CALM 0 0 0 0 - - 0.0
27/04:00am 6.6 5.8 6.6 100 0.0 CALM 0 0 0 0 - - 0.0
27/03:30am 6.5 4.6 6.5 100 0.0 ENE 6 6 3 3 - - 0.0
27/03:00am 8.0 7.5 8.0 100 0.0 CALM 0 0 0 0 - - 0.0
27/02:30am 7.6 7.0 7.6 100 0.0 CALM 0 0 0 0 - - 0.0
27/02:00am 8.5 6.8 8.5 100 0.0 ESE 7 7 4 4 - - 0.0
27/01:30am 9.5 8.3 9.5 100 0.0 E 6 9 3 5 - - 0.0
27/01:00am 9.7 8.5 9.7 100 0.0 E 6 7 3 4 - - 0.0
27/12:30am 9.5 8.3 9.5 100 0.0 ESE 6 7 3 4 - - 0.0
27/12:00am 8.8 7.2 8.8 100 0.0 E 7 9 4 5 - - 0.0
 
Date/Time
EST
Temp
°C
App
Temp
°C
Dew
Point
°C
Rel
Hum
%
Delta-T
°C
Wind Press
QNH
hPa
Press
MSL
hPa
Rain since
9am
mm
Dir  Spd
km/h
Gust
km/h
Spd
kts
Gust
kts
26/11:30pm 8.7 7.7 8.7 100 0.0 NE 4 6 2 3 - - 0.0
26/11:00pm 8.2 7.8 8.2 100 0.0 CALM 0 0 0 0 - - 0.0
26/10:30pm 8.2 6.6 8.2 100 0.0 SSE 6 7 3 4 - - 0.0
26/10:00pm 7.6 5.9 7.6 100 0.0 ESE 6 7 3 4 - - 0.0
26/09:30pm 8.3 7.9 8.3 100 0.0 CALM 0 6 0 3 - - 0.0
26/09:00pm 7.8 7.3 7.8 100 0.0 CALM 0 0 0 0 - - 0.0
26/08:30pm 7.6 7.0 7.6 100 0.0 CALM 0 0 0 0 - - 0.0
26/08:00pm 7.4 6.8 7.4 100 0.0 CALM 0 0 0 0 - - 0.0
26/07:30pm 7.4 6.4 7.4 100 0.0 ENE 2 6 1 3 - - 0.0
26/07:00pm 8.5 7.0 8.5 100 0.0 ENE 6 7 3 4 - - 0.0
26/06:30pm 9.5 9.4 9.5 100 0.0 CALM 0 0 0 0 - - 0.0
26/06:00pm 10.2 10.3 10.2 100 0.0 CALM 0 0 0 0 - - 0.0
26/05:30pm 12.1 11.6 12.1 100 0.0 E 6 6 3 3 - - 0.0
26/05:00pm 13.6 13.3 12.7 94 0.5 ENE 6 9 3 5 - - 0.0
26/04:30pm 15.1 14.6 12.6 85 1.4 ESE 7 9 4 5 - - 0.0
26/04:00pm 15.6 15.1 12.7 83 1.6 ENE 7 13 4 7 - - 0.0
26/03:30pm 15.7 15.6 13.2 85 1.4 ENE 6 7 3 4 - - 0.0
26/03:00pm 15.4 15.1 12.7 84 1.5 ENE 6 7 3 4 - - 0.0
26/02:30pm 15.7 15.5 13.0 84 1.5 NE 6 9 3 5 - - 0.0
26/02:00pm 15.4 14.9 12.5 83 1.6 NE 7 11 4 6 - - 0.0
26/01:30pm 15.5 15.3 13.5 88 1.1 NNE 7 11 4 6 - - 0.0
26/01:00pm 15.2 14.5 13.1 87 1.2 NNE 9 11 5 6 - - 0.0
26/12:30pm 15.1 14.5 13.5 90 0.9 ENE 9 13 5 7 - - 0.0
26/12:00pm 14.8 14.5 13.3 91 0.8 NE 7 13 4 7 - - 0.0
26/11:30am 14.0 13.1 12.7 92 0.7 NE 9 13 5 7 - - 0.0
26/11:00am 13.8 12.9 12.7 93 0.6 NNE 9 13 5 7 - - 0.0
26/10:30am 13.0 12.3 12.1 94 0.5 NE 7 11 4 6 - - 0.0
26/10:00am 13.2 12.2 12.4 95 0.4 ENE 9 13 5 7 - - 0.0
26/09:30am 13.7 13.0 13.2 97 0.3 ENE 9 13 5 7 - - 0.0
26/09:00am 12.6 11.3 12.6 100 0.0 ENE 11 17 6 9 - - 0.2
26/08:30am 11.5 10.3 11.5 100 0.0 ENE 9 13 5 7 - - 0.2
26/08:00am 9.8 8.1 9.8 100 0.0 ENE 9 9 5 5 - - 0.2
26/07:30am 9.8 8.1 9.8 100 0.0 ENE 9 11 5 6 - - 0.2
26/07:00am 9.8 8.5 9.8 100 0.0 ENE 7 9 4 5 - - 0.2
26/06:30am 10.4 9.2 10.4 100 0.0 ENE 7 11 4 6 - - 0.2
26/06:00am 10.3 9.1 10.3 100 0.0 E 7 9 4 5 - - 0.2
26/05:30am 10.6 10.8 10.6 100 0.0 CALM 0 0 0 0 - - 0.2
26/05:00am 10.7 10.2 10.7 100 0.0 NE 4 7 2 4 - - 0.2
26/04:30am 10.6 9.1 10.6 100 0.0 ENE 9 11 5 6 - - 0.2
26/04:00am 10.8 9.7 10.8 100 0.0 ENE 7 9 4 5 - - 0.2
26/03:30am 10.7 9.2 10.7 100 0.0 ENE 9 11 5 6 - - 0.2
26/03:00am 10.7 9.8 10.7 100 0.0 ENE 6 7 3 4 - - 0.2
26/02:30am 10.9 10.1 10.9 100 0.0 E 6 9 3 5 - - 0.0
26/02:00am 10.8 9.9 10.8 100 0.0 NE 6 9 3 5 - - 0.0
26/01:30am 11.0 10.2 11.0 100 0.0 ENE 6 9 3 5 - - 0.0
26/01:00am 10.9 10.1 10.9 100 0.0 E 6 9 3 5 - - 0.0
26/12:30am 10.9 9.9 10.9 100 0.0 E 7 9 4 5 - - 0.0
26/12:00am 10.7 9.2 10.7 100 0.0 ENE 9 11 5 6 - - 0.0
 
Date/Time
EST
Temp
°C
App
Temp
°C
Dew
Point
°C
Rel
Hum
%
Delta-T
°C
Wind Press
QNH
hPa
Press
MSL
hPa
Rain since
9am
mm
Dir  Spd
km/h
Gust
km/h
Spd
kts
Gust
kts
25/11:30pm 10.7 10.6 10.7 100 0.0 ESE 2 6 1 3 - - 0.0
25/11:00pm 10.6 9.5 10.6 100 0.0 ENE 7 9 4 5 - - 0.0
25/10:30pm 10.6 9.5 10.6 100 0.0 E 7 9 4 5 - - 0.0
25/10:00pm 10.6 9.5 10.6 100 0.0 E 7 9 4 5 - - 0.0
25/09:30pm 10.6 9.7 10.6 100 0.0 E 6 7 3 4 - - 0.0
25/09:00pm 10.7 9.8 10.7 100 0.0 E 6 7 3 4 - - 0.0
25/08:30pm 10.9 9.9 10.9 100 0.0 ESE 7 9 4 5 - - 0.0
25/08:00pm 11.0 10.0 11.0 100 0.0 NE 7 9 4 5 - - 0.0
25/07:30pm 11.1 10.3 11.1 100 0.0 NNE 6 9 3 5 - - 0.0
25/07:00pm 11.3 10.4 11.3 100 0.0 NE 7 11 4 6 - - 0.0
25/06:30pm 11.2 11.2 11.2 100 0.0 NNE 2 7 1 4 - - 0.0
25/06:00pm 11.1 10.3 11.1 100 0.0 ENE 6 7 3 4 - - 0.0
25/05:30pm 11.6 11.0 11.6 100 0.0 NE 6 7 3 4 - - 0.0
25/05:00pm 11.8 12.4 11.8 100 0.0 CALM 0 7 0 4 - - 0.0
25/04:30pm 12.1 12.0 12.1 100 0.0 N 4 7 2 4 - - 0.0
25/04:00pm 12.4 12.4 12.4 100 0.0 N 4 7 2 4 - - 0.0
25/03:30pm 12.5 13.2 12.3 99 0.1 CALM 0 6 0 3 - - 0.0
25/03:00pm 12.5 13.2 12.2 98 0.2 CALM 0 0 0 0 - - 0.0
25/02:30pm 12.6 13.4 12.6 100 0.0 CALM 0 0 0 0 - - 0.0
25/02:00pm 11.8 10.3 11.8 100 0.0 WSW 11 15 6 8 - - 0.0
25/01:30pm 12.1 11.5 11.6 97 0.3 WSW 6 9 3 5 - - 0.0
25/01:00pm 12.0 11.9 12.0 100 0.0 NW 4 7 2 4 - - 0.0
25/12:30pm 12.1 12.4 12.1 100 0.0 NNE 2 6 1 3 - - 0.0
25/12:00pm 10.6 9.7 10.6 100 0.0 NNE 6 9 3 5 - - 0.0
25/11:30am 10.1 9.4 10.1 100 0.0 NNE 4 7 2 4 - - 0.0
25/11:00am 9.8 8.7 9.8 100 0.0 NNE 6 7 3 4 - - 0.0
25/10:30am 9.5 8.3 9.5 100 0.0 N 6 7 3 4 - - 0.0
25/10:00am 8.5 7.0 8.5 100 0.0 N 6 9 3 5 - - 0.0
25/09:30am 8.2 6.5 8.2 100 0.0 NE 7 11 4 6 - - 0.0
25/09:00am 7.1 5.1 7.1 100 0.0 ENE 7 9 4 5 - - 0.0
25/08:30am 5.4 4.4 5.4 100 0.0 CALM 0 0 0 0 - - 0.0
25/08:00am 3.6 2.2 3.6 100 0.0 CALM 0 0 0 0 - - 0.0
25/07:30am 2.5 -0.2 2.5 100 0.0 ENE 6 7 3 4 - - 0.0
25/07:00am 2.8 1.3 2.8 100 0.0 CALM 0 0 0 0 - - 0.0
25/06:30am 2.8 1.3 2.8 100 0.0 CALM 0 4 0 2 - - 0.0
25/06:00am 2.3 0.7 2.3 100 0.0 CALM 0 0 0 0 - - 0.0
25/05:30am 2.6 1.0 2.6 100 0.0 CALM 0 0 0 0 - - 0.0
25/05:00am 3.2 1.7 3.2 100 0.0 CALM 0 0 0 0 - - 0.0
25/04:30am 2.5 -0.2 2.5 100 0.0 SSE 6 7 3 4 - - 0.0
25/04:00am 3.6 2.2 3.6 100 0.0 CALM 0 0 0 0 - - 0.0
25/03:30am 3.8 2.4 3.8 100 0.0 CALM 0 0 0 0 - - 0.0
25/03:00am 2.6 -0.1 2.6 100 0.0 W 6 11 3 6 - - 0.0
25/02:30am 2.4 -0.3 2.4 100 0.0 E 6 7 3 4 - - 0.0
25/02:00am 2.8 1.3 2.8 100 0.0 CALM 0 0 0 0 - - 0.0
25/01:30am 2.4 0.8 2.4 100 0.0 CALM 0 0 0 0 - - 0.0
25/01:00am 2.3 0.7 2.3 100 0.0 CALM 0 0 0 0 - - 0.0
25/12:30am 3.0 1.5 3.0 100 0.0 CALM 0 0 0 0 - - 0.0
25/12:00am 3.6 2.2 3.6 100 0.0 CALM 0 0 0 0 - - 0.0
 
Date/Time
EST
Temp
°C
App
Temp
°C
Dew
Point
°C
Rel
Hum
%
Delta-T
°C
Wind Press
QNH
hPa
Press
MSL
hPa
Rain since
9am
mm
Dir  Spd
km/h
Gust
km/h
Spd
kts
Gust
kts
24/11:30pm 3.5 2.1 3.5 100 0.0 CALM 0 0 0 0 - - 0.0
24/11:00pm 3.7 2.3 3.7 100 0.0 CALM 0 0 0 0 - - 0.0
24/10:30pm 4.5 3.3 4.5 100 0.0 CALM 0 0 0 0 - - 0.0
24/10:00pm 4.6 2.6 4.6 100 0.0 ESE 4 7 2 4 - - 0.0
24/09:30pm 5.7 4.7 5.7 100 0.0 CALM 0 0 0 0 - - 0.0
24/09:00pm 5.8 4.8 5.8 100 0.0 CALM 0 0 0 0 - - 0.0
24/08:30pm 5.7 4.7 5.7 100 0.0 CALM 0 0 0 0 - - 0.0
24/08:00pm 7.2 5.4 7.2 100 0.0 N 6 7 3 4 - - 0.0
24/07:30pm 7.0 5.2 7.0 100 0.0 ENE 6 6 3 3 - - 0.0
24/07:00pm 6.9 5.8 6.9 100 0.0 E 2 9 1 5 - - 0.0
24/06:30pm 7.9 7.4 7.9 100 0.0 CALM 0 0 0 0 - - 0.0
24/06:00pm 9.1 8.9 9.1 100 0.0 CALM 0 0 0 0 - - 0.0

Other Formats:

Comma delimited format used in spreadsheet applications
http://www.bom.gov.au/fwo/IDV60801/IDV60801.95837.axf

JavaScript Object Notation format (JSON) in row-major order
http://www.bom.gov.au/fwo/IDV60801/IDV60801.95837.json